Time;durP1;ratioP1;P1;durP2;ratioP2;P2;SDS_P1;SDS_P2;PMS_P1;PMS_P2;Temp;Humidity;BMP_temperature;BMP_pressure;BME280_temperature;BME280_humidity;BME280_pressure;Samples;Min_cycle;Max_cycle;Signal;HPM_P1;HPM_P2
2022/03/17 00:01:50;;;;;;;12.23;11.13;;;11.00;86.40;;;;;;5057663;28;20212;-89
2022/03/17 00:04:16;;;;;;;13.73;12.53;;;11.00;86.80;;;;;;5050874;28;20523;-89
2022/03/17 00:06:41;;;;;;;13.70;12.50;;;11.00;86.90;;;;;;5041581;28;20204;-89
2022/03/17 00:09:07;;;;;;;14.17;12.87;;;11.00;87.10;;;;;;5059477;28;20187;-89
2022/03/17 00:11:34;;;;;;;13.50;12.13;;;10.90;87.50;;;;;;5055511;28;20749;-88
2022/03/17 00:14:01;;;;;;;12.97;11.67;;;10.80;87.70;;;;;;5058300;28;20652;-89
2022/03/17 00:16:28;;;;;;;12.27;10.83;;;10.80;88.40;;;;;;5061809;28;20184;-91
2022/03/17 00:18:55;;;;;;;11.67;10.57;;;10.70;88.60;;;;;;5063442;28;20187;-89
2022/03/17 00:21:22;;;;;;;10.90;9.90;;;10.70;89.50;;;;;;5040714;28;20257;-90
2022/03/17 00:23:48;;;;;;;11.27;10.20;;;10.70;89.50;;;;;;5041064;28;20188;-89
2022/03/17 00:26:14;;;;;;;11.33;10.30;;;10.70;89.40;;;;;;5058285;28;20862;-90
2022/03/17 00:28:39;;;;;;;11.40;10.33;;;10.70;89.30;;;;;;5058281;28;20172;-89
2022/03/17 00:31:05;;;;;;;13.93;12.60;;;10.80;88.70;;;;;;5054824;28;20192;-89
2022/03/17 00:33:31;;;;;;;13.17;11.83;;;10.80;88.60;;;;;;5033945;28;20192;-90
2022/03/17 00:35:57;;;;;;;13.37;12.07;;;10.70;89.30;;;;;;5034652;28;20200;-90
2022/03/17 00:38:22;;;;;;;12.00;10.90;;;10.70;88.80;;;;;;5045661;28;20192;-90
2022/03/17 00:40:48;;;;;;;11.87;10.87;;;10.60;89.40;;;;;;5032303;28;20207;-91
2022/03/17 00:43:15;;;;;;;10.83;9.97;;;10.60;89.00;;;;;;5064293;28;20230;-89
2022/03/17 00:45:47;;;;;;;13.00;11.87;;;10.70;89.00;;;;;;5044929;28;20191;-90
2022/03/17 00:48:13;;;;;;;13.30;12.07;;;10.60;88.30;;;;;;5068025;28;20175;-91
2022/03/17 00:50:39;;;;;;;10.93;9.93;;;10.70;89.00;;;;;;5061837;28;20183;-90
2022/03/17 00:53:05;;;;;;;12.23;11.07;;;10.60;88.60;;;;;;5061330;28;20216;-89
2022/03/17 00:55:31;;;;;;;14.07;12.70;;;10.70;88.70;;;;;;5042996;28;20222;-90
2022/03/17 00:57:57;;;;;;;11.03;10.03;;;10.70;88.80;;;;;;5057096;28;20211;-89
2022/03/17 01:00:23;;;;;;;11.17;10.07;;;10.60;88.60;;;;;;5039063;28;20219;-90
2022/03/17 01:02:55;;;;;;;10.67;9.57;;;10.50;89.20;;;;;;5061476;28;20207;-88
2022/03/17 01:05:22;;;;;;;11.73;10.73;;;10.40;89.90;;;;;;5050543;28;20192;-89
2022/03/17 01:07:49;;;;;;;12.47;11.17;;;10.50;89.90;;;;;;5028134;28;20616;-89
2022/03/17 01:10:17;;;;;;;12.80;11.50;;;10.50;89.80;;;;;;5024353;28;20590;-89
2022/03/17 01:12:44;;;;;;;11.07;9.97;;;10.50;89.80;;;;;;5029172;28;20214;-89
2022/03/17 01:15:11;;;;;;;11.30;10.30;;;10.40;90.50;;;;;;5016460;28;20228;-89
2022/03/17 01:17:36;;;;;;;12.03;11.00;;;10.30;91.00;;;;;;5040928;28;20198;-89
2022/03/17 01:20:04;;;;;;;11.90;10.80;;;10.40;90.00;;;;;;5059479;28;20216;-89
2022/03/17 01:22:30;;;;;;;11.73;10.57;;;10.40;90.50;;;;;;5049947;28;20240;-89
2022/03/17 01:24:56;;;;;;;12.83;11.67;;;10.40;89.90;;;;;;5045087;28;20224;-90
2022/03/17 01:27:23;;;;;;;12.63;11.40;;;10.40;90.60;;;;;;5038812;28;20206;-90
2022/03/17 01:29:49;;;;;;;11.87;10.50;;;10.40;90.20;;;;;;5060448;28;20191;-89
2022/03/17 01:32:16;;;;;;;11.83;10.70;;;10.50;89.70;;;;;;5042964;28;20469;-89
2022/03/17 01:34:42;;;;;;;12.70;11.60;;;10.50;89.50;;;;;;5061201;28;20208;-89
2022/03/17 01:37:07;;;;;;;12.73;11.63;;;10.60;89.60;;;;;;5061456;28;20187;-89
2022/03/17 01:39:33;;;;;;;13.43;12.13;;;10.40;90.40;;;;;;5043341;28;20211;-89
2022/03/17 01:42:02;;;;;;;12.10;11.00;;;10.30;90.90;;;;;;5057012;28;20602;-89
2022/03/17 01:44:27;;;;;;;11.40;10.30;;;10.40;90.80;;;;;;5031404;28;20195;-91
2022/03/17 01:49:38;;;;;;;12.17;11.13;;;10.30;91.20;;;;;;5046994;28;20206;-89
2022/03/17 01:52:05;;;;;;;12.17;11.07;;;10.30;91.30;;;;;;5041167;28;20231;-90
2022/03/17 01:54:31;;;;;;;11.63;10.60;;;10.30;92.00;;;;;;5043313;28;20184;-89
2022/03/17 01:57:01;;;;;;;12.00;10.83;;;10.30;91.30;;;;;;5044647;28;20195;-89
2022/03/17 01:59:27;;;;;;;13.13;11.87;;;10.30;91.20;;;;;;5049172;28;20295;-89
2022/03/17 02:01:54;;;;;;;11.90;10.70;;;10.30;92.40;;;;;;5058122;28;20215;-90
2022/03/17 02:04:20;;;;;;;13.43;11.93;;;10.20;93.40;;;;;;5041669;28;20196;-90
2022/03/17 02:06:46;;;;;;;12.17;10.97;;;10.10;93.60;;;;;;5040798;28;20350;-90
2022/03/17 02:09:12;;;;;;;11.70;10.70;;;9.80;95.20;;;;;;5071285;28;20175;-90
2022/03/17 02:14:25;;;;;;;11.63;10.47;;;10.00;92.90;;;;;;5045245;28;20762;-90
2022/03/17 02:16:51;;;;;;;12.87;11.67;;;10.20;92.50;;;;;;5066063;28;20198;-90
2022/03/17 02:19:17;;;;;;;11.20;10.10;;;10.20;92.30;;;;;;5060993;28;20579;-90
2022/03/17 02:21:47;;;;;;;11.77;10.63;;;10.20;91.70;;;;;;5043646;28;20613;-90
2022/03/17 02:26:59;;;;;;;11.37;10.27;;;10.20;91.50;;;;;;5067990;28;20256;-90
2022/03/17 02:29:25;;;;;;;11.03;10.00;;;10.20;91.80;;;;;;5059925;28;20191;-90
2022/03/17 02:31:51;;;;;;;11.00;9.97;;;10.20;92.20;;;;;;5062353;28;20224;-90
2022/03/17 02:34:18;;;;;;;11.37;10.43;;;10.20;92.10;;;;;;5049347;28;20859;-90
2022/03/17 02:36:48;;;;;;;11.70;10.50;;;10.20;92.00;;;;;;5060398;28;20183;-90
2022/03/17 02:39:15;;;;;;;11.10;10.10;;;10.20;92.20;;;;;;5058295;28;20250;-89
2022/03/17 02:41:41;;;;;;;12.03;10.90;;;10.10;92.00;;;;;;5048596;28;20223;-89
2022/03/17 02:44:07;;;;;;;10.87;9.87;;;10.20;91.70;;;;;;5054153;28;20188;-90
2022/03/17 02:46:32;;;;;;;11.50;10.50;;;10.10;92.40;;;;;;5051494;28;20226;-90
2022/03/17 02:48:58;;;;;;;12.63;11.43;;;10.10;92.40;;;;;;5041567;28;20206;-90
2022/03/17 02:51:24;;;;;;;11.70;10.50;;;10.10;93.30;;;;;;5034707;28;20195;-90
2022/03/17 02:53:49;;;;;;;11.83;10.63;;;10.10;93.10;;;;;;5051141;28;20215;-90
2022/03/17 02:56:15;;;;;;;10.83;9.77;;;10.10;92.90;;;;;;5062658;28;20258;-90
2022/03/17 02:58:41;;;;;;;12.47;11.27;;;10.10;92.30;;;;;;5064147;28;20190;-90
2022/03/17 03:01:06;;;;;;;11.53;10.33;;;10.10;92.30;;;;;;5051649;28;20217;-91
2022/03/17 03:03:32;;;;;;;11.53;10.43;;;10.10;92.60;;;;;;5054905;28;20190;-90
2022/03/17 03:05:58;;;;;;;12.40;11.13;;;10.10;92.90;;;;;;5038183;28;20183;-91
2022/03/17 03:08:24;;;;;;;12.53;11.43;;;10.00;92.80;;;;;;5062386;28;20200;-89
2022/03/17 03:10:50;;;;;;;11.87;10.77;;;10.10;93.10;;;;;;5047218;28;20250;-90
2022/03/17 03:13:15;;;;;;;12.23;11.17;;;10.10;93.50;;;;;;5063175;28;20194;-90
2022/03/17 03:15:42;;;;;;;12.03;10.93;;;10.10;93.60;;;;;;5043438;28;20290;-90
2022/03/17 03:18:07;;;;;;;13.90;12.60;;;10.20;93.10;;;;;;5025287;28;20186;-90
2022/03/17 03:20:33;;;;;;;14.07;12.80;;;10.10;93.60;;;;;;5052019;28;20244;-90
2022/03/17 03:22:59;;;;;;;13.80;12.40;;;10.10;94.40;;;;;;5069791;28;20199;-90
2022/03/17 03:25:25;;;;;;;12.63;10.80;;;10.00;94.40;;;;;;5043333;28;20241;-90
2022/03/17 03:27:51;;;;;;;12.87;11.67;;;10.00;94.30;;;;;;5047360;28;20187;-90
2022/03/17 03:30:18;;;;;;;13.10;11.63;;;10.00;94.20;;;;;;5036369;28;20363;-90
2022/03/17 03:32:45;;;;;;;15.17;13.67;;;9.90;94.90;;;;;;5038666;28;20282;-90
2022/03/17 03:37:56;;;;;;;13.17;11.87;;;9.90;95.70;;;;;;5063550;28;20210;-90
2022/03/17 03:40:22;;;;;;;14.17;12.77;;;10.00;95.00;;;;;;5061437;28;20266;-89
2022/03/17 03:42:48;;;;;;;16.50;14.80;;;10.10;94.80;;;;;;5050423;28;20219;-91
2022/03/17 03:45:13;;;;;;;21.47;15.73;;;10.00;96.40;;;;;;5058302;28;20242;-90
2022/03/17 03:47:39;;;;;;;17.30;15.40;;;9.90;98.20;;;;;;5033001;28;20195;-90
2022/03/17 03:50:05;;;;;;;18.67;16.73;;;9.80;99.40;;;;;;5059225;28;20191;-90
2022/03/17 03:52:31;;;;;;;20.00;18.00;;;9.80;99.90;;;;;;5050289;28;20227;-90
2022/03/17 03:54:57;;;;;;;19.63;17.73;;;9.70;99.90;;;;;;5051944;28;20201;-90
2022/03/17 03:57:24;;;;;;;20.77;17.60;;;9.60;99.90;;;;;;5053224;28;20190;-90
2022/03/17 03:59:49;;;;;;;24.93;19.57;;;9.60;99.90;;;;;;5065831;28;20264;-91
2022/03/17 04:02:15;;;;;;;21.17;18.53;;;9.50;99.90;;;;;;5069061;28;20204;-90
2022/03/17 04:04:42;;;;;;;20.73;18.53;;;9.40;99.90;;;;;;5026473;28;20181;-90
2022/03/17 04:07:10;;;;;;;21.93;19.60;;;9.50;99.90;;;;;;5009891;28;20175;-90
2022/03/17 04:09:39;;;;;;;24.83;21.87;;;9.50;99.90;;;;;;5043555;28;20182;-90
2022/03/17 04:12:07;;;;;;;23.47;21.13;;;9.40;99.90;;;;;;5025221;28;20210;-90
2022/03/17 04:14:34;;;;;;;23.53;20.97;;;9.20;99.90;;;;;;5041048;28;20213;-90
2022/03/17 04:17:00;;;;;;;23.87;21.37;;;9.20;99.90;;;;;;5058834;28;20234;-91
2022/03/17 04:19:26;;;;;;;25.20;20.10;;;9.30;99.90;;;;;;5050329;28;20204;-90
2022/03/17 04:21:53;;;;;;;25.13;22.57;;;9.30;99.90;;;;;;5063133;28;20260;-90
2022/03/17 04:24:19;;;;;;;27.83;24.80;;;9.40;99.90;;;;;;5045436;28;20198;-90
2022/03/17 04:26:46;;;;;;;24.37;21.90;;;9.40;99.90;;;;;;5063004;28;20208;-90
2022/03/17 04:29:12;;;;;;;29.70;26.20;;;9.40;99.90;;;;;;5062849;28;20196;-90
2022/03/17 04:31:40;;;;;;;31.13;26.40;;;9.40;99.90;;;;;;5033063;28;20208;-90
2022/03/17 04:34:06;;;;;;;29.90;26.83;;;9.40;99.90;;;;;;5049409;28;20190;-90
2022/03/17 04:36:33;;;;;;;32.33;28.80;;;9.50;99.90;;;;;;5037675;28;20196;-90
2022/03/17 04:39:00;;;;;;;31.40;28.10;;;9.40;99.90;;;;;;5035525;28;20195;-90
2022/03/17 04:41:26;;;;;;;31.33;28.00;;;9.30;99.90;;;;;;5044744;28;20225;-90
2022/03/17 04:43:51;;;;;;;30.00;26.73;;;9.40;99.90;;;;;;5041559;28;20195;-90
2022/03/17 04:46:17;;;;;;;31.63;28.20;;;9.30;99.90;;;;;;5030671;28;20193;-90
2022/03/17 04:48:43;;;;;;;31.03;26.43;;;9.30;99.90;;;;;;5045042;28;20215;-90
2022/03/17 04:51:09;;;;;;;30.63;27.37;;;9.40;99.90;;;;;;5022680;28;20228;-90
2022/03/17 04:53:35;;;;;;;32.77;28.57;;;9.30;99.90;;;;;;5027451;28;20201;-90
2022/03/17 04:56:03;;;;;;;34.30;28.50;;;9.30;99.90;;;;;;5063915;28;20185;-90
2022/03/17 04:58:31;;;;;;;31.63;28.10;;;9.10;99.90;;;;;;5041650;28;20188;-90
2022/03/17 05:00:57;;;;;;;33.57;28.43;;;9.00;99.90;;;;;;5054618;28;20242;-91
2022/03/17 05:03:24;;;;;;;34.13;28.57;;;8.90;99.90;;;;;;5040853;28;20242;-89
2022/03/17 05:05:50;;;;;;;31.90;27.90;;;9.00;99.90;;;;;;5051372;28;20221;-89
2022/03/17 05:08:16;;;;;;;28.50;25.40;;;9.00;99.90;;;;;;5033366;28;20185;-89
2022/03/17 05:10:43;;;;;;;30.00;26.80;;;9.00;99.90;;;;;;5025434;28;20182;-89
2022/03/17 05:13:11;;;;;;;28.80;25.77;;;9.00;99.90;;;;;;5024940;28;20258;-89
2022/03/17 05:15:37;;;;;;;28.17;25.27;;;9.10;99.90;;;;;;5047906;28;20303;-89
2022/03/17 05:18:07;;;;;;;27.33;24.30;;;9.30;99.90;;;;;;5028647;28;20188;-89
2022/03/17 05:20:35;;;;;;;27.47;24.50;;;9.40;99.90;;;;;;5029513;28;20221;-89
2022/03/17 05:23:11;;;;;;;27.23;24.43;;;9.50;99.90;;;;;;5063219;28;20201;-89
2022/03/17 05:25:38;;;;;;;26.50;23.70;;;9.50;99.90;;;;;;5064167;28;20238;-89
2022/03/17 05:28:04;;;;;;;26.67;23.90;;;9.50;99.90;;;;;;5063786;28;20185;-88
2022/03/17 05:30:31;;;;;;;28.47;25.27;;;9.70;99.90;;;;;;5066141;28;20222;-88
2022/03/17 05:32:56;;;;;;;31.23;27.97;;;9.60;99.90;;;;;;5044710;28;20240;-88
2022/03/17 05:35:23;;;;;;;29.13;25.47;;;9.60;99.90;;;;;;5046638;28;20865;-88
2022/03/17 05:37:50;;;;;;;28.80;25.63;;;9.50;99.90;;;;;;5051681;28;20192;-88
2022/03/17 05:40:17;;;;;;;29.17;26.10;;;9.50;99.90;;;;;;5045985;28;20216;-88
2022/03/17 05:42:48;;;;;;;32.10;28.80;;;9.40;99.90;;;;;;5054797;28;20208;-88
2022/03/17 05:45:15;;;;;;;28.03;25.13;;;9.50;99.90;;;;;;5077737;28;20170;-88
2022/03/17 05:47:47;;;;;;;26.13;23.33;;;9.50;99.90;;;;;;5053721;28;20204;-88
2022/03/17 05:50:15;;;;;;;24.10;21.60;;;9.50;99.90;;;;;;5066790;28;20769;-88
2022/03/17 05:52:42;;;;;;;23.23;20.90;;;9.50;99.90;;;;;;5052782;28;20229;-88
2022/03/17 05:55:17;;;;;;;22.07;19.20;;;9.50;99.90;;;;;;5051828;28;20246;-88
2022/03/17 05:57:48;;;;;;;19.90;17.83;;;9.40;99.90;;;;;;5060743;28;20683;-88
2022/03/17 06:00:19;;;;;;;23.40;21.00;;;9.50;99.90;;;;;;5040676;28;20716;-88
2022/03/17 06:02:45;;;;;;;26.03;20.83;;;9.40;99.90;;;;;;5031334;28;20215;-88
2022/03/17 06:05:12;;;;;;;25.67;22.93;;;9.40;99.90;;;;;;5058621;28;20636;-88
2022/03/17 06:07:48;;;;;;;24.60;21.93;;;9.40;99.90;;;;;;5065291;28;20402;-88
2022/03/17 06:10:16;;;;;;;30.77;27.87;;;9.40;99.90;;;;;;5086842;28;20187;-88
2022/03/17 06:12:44;;;;;;;24.93;22.30;;;9.40;99.90;;;;;;5059519;28;20232;-88
2022/03/17 06:15:11;;;;;;;23.27;20.87;;;9.40;99.90;;;;;;5059855;28;20917;-88
2022/03/17 06:17:38;;;;;;;22.97;20.40;;;9.50;99.90;;;;;;5065460;28;20280;-88
2022/03/17 06:20:04;;;;;;;23.23;20.93;;;9.60;99.90;;;;;;5049097;28;20283;-88
2022/03/17 06:22:30;;;;;;;24.93;22.37;;;9.50;99.90;;;;;;5043683;28;20209;-88
2022/03/17 06:24:56;;;;;;;22.97;20.50;;;9.40;99.90;;;;;;5045779;28;20234;-88
2022/03/17 06:27:22;;;;;;;26.17;23.67;;;9.30;99.90;;;;;;5064701;28;20281;-88
2022/03/17 06:29:48;;;;;;;22.73;20.50;;;9.40;99.90;;;;;;5041787;28;20202;-88
2022/03/17 06:32:13;;;;;;;25.70;23.20;;;9.30;99.90;;;;;;5056474;28;20217;-88
2022/03/17 06:34:39;;;;;;;23.90;21.37;;;9.20;99.90;;;;;;5044889;28;20201;-88
2022/03/17 06:37:05;;;;;;;28.53;22.40;;;9.10;99.90;;;;;;5046531;28;20185;-88
2022/03/17 06:39:30;;;;;;;25.73;22.03;;;9.00;99.90;;;;;;5045609;28;20612;-88
2022/03/17 06:41:56;;;;;;;23.97;21.63;;;9.10;99.90;;;;;;5044550;28;20208;-88
2022/03/17 06:44:22;;;;;;;27.43;23.87;;;9.00;99.90;;;;;;5064712;28;20196;-88
2022/03/17 06:46:48;;;;;;;24.40;22.13;;;8.90;99.90;;;;;;5030751;28;20200;-88
2022/03/17 06:49:13;;;;;;;25.23;22.63;;;9.00;99.90;;;;;;5067449;28;20196;-88
2022/03/17 06:51:39;;;;;;;25.73;22.53;;;9.10;99.90;;;;;;5072109;28;20205;-88
2022/03/17 06:54:04;;;;;;;23.80;21.40;;;9.20;99.90;;;;;;5076743;28;20200;-89
2022/03/17 06:56:31;;;;;;;23.33;20.93;;;9.30;99.90;;;;;;5053275;28;20665;-88
2022/03/17 06:58:57;;;;;;;25.40;22.63;;;9.30;99.90;;;;;;5046296;28;20188;-89
2022/03/17 07:01:22;;;;;;;28.37;25.40;;;9.40;99.90;;;;;;5062949;28;20228;-88
2022/03/17 07:03:48;;;;;;;31.27;27.87;;;9.40;99.90;;;;;;5066300;28;20272;-89
2022/03/17 07:06:14;;;;;;;35.13;27.67;;;9.30;99.90;;;;;;5067447;28;20192;-89
2022/03/17 07:08:39;;;;;;;28.23;25.33;;;9.10;99.90;;;;;;5032897;28;20226;-89
2022/03/17 07:11:06;;;;;;;28.33;25.30;;;9.30;99.90;;;;;;5046654;28;20199;-89
2022/03/17 07:13:31;;;;;;;31.47;27.40;;;9.40;99.90;;;;;;5045731;28;20719;-89
2022/03/17 07:15:57;;;;;;;32.23;29.00;;;9.20;99.90;;;;;;5049689;28;20275;-89
2022/03/17 07:18:23;;;;;;;34.57;30.87;;;9.10;99.90;;;;;;5067152;28;20196;-89
2022/03/17 07:20:48;;;;;;;36.00;29.83;;;9.00;99.90;;;;;;5044720;28;20623;-89
2022/03/17 07:23:14;;;;;;;32.67;29.33;;;8.90;99.90;;;;;;5045343;28;20208;-88
2022/03/17 07:25:41;;;;;;;30.97;27.73;;;9.00;99.90;;;;;;5062743;28;20184;-89
2022/03/17 07:28:07;;;;;;;33.23;29.70;;;9.00;99.90;;;;;;5064905;28;20214;-90
2022/03/17 07:30:33;;;;;;;36.87;32.30;;;9.00;99.90;;;;;;5045176;28;20189;-89
2022/03/17 07:32:59;;;;;;;34.03;30.60;;;9.10;99.90;;;;;;5029305;28;20212;-90
2022/03/17 07:35:27;;;;;;;32.17;28.77;;;9.20;99.90;;;;;;5045971;28;20669;-90
2022/03/17 07:37:53;;;;;;;34.30;30.70;;;9.30;99.90;;;;;;5046754;28;20193;-89
2022/03/17 07:40:22;;;;;;;33.70;30.20;;;9.50;99.90;;;;;;5064407;28;20213;-89
2022/03/17 07:42:47;;;;;;;32.33;28.93;;;9.60;99.90;;;;;;5047414;28;20290;-89
2022/03/17 07:45:13;;;;;;;31.07;27.97;;;9.80;99.90;;;;;;5053481;28;20178;-89
2022/03/17 07:47:50;;;;;;;30.67;27.67;;;9.90;99.90;;;;;;5056518;28;20232;-89
2022/03/17 07:50:17;;;;;;;31.20;27.93;;;10.10;99.90;;;;;;5055437;28;20182;-90
2022/03/17 07:52:43;;;;;;;28.03;25.17;;;10.10;99.90;;;;;;5076217;28;20245;-89
2022/03/17 07:55:09;;;;;;;33.87;30.13;;;10.20;99.90;;;;;;5045308;28;20195;-89
2022/03/17 07:57:36;;;;;;;32.37;29.13;;;10.30;99.90;;;;;;5063293;28;20226;-91
2022/03/17 08:00:03;;;;;;;32.37;29.10;;;10.30;99.90;;;;;;5064189;28;20230;-89
2022/03/17 08:02:30;;;;;;;29.33;26.30;;;10.40;99.90;;;;;;5063220;28;20207;-89
2022/03/17 08:04:55;;;;;;;30.73;27.40;;;10.40;99.90;;;;;;5065203;28;20681;-89
2022/03/17 08:07:22;;;;;;;30.03;26.90;;;10.40;99.90;;;;;;5063929;28;20198;-89
2022/03/17 08:09:48;;;;;;;31.40;28.30;;;10.40;99.90;;;;;;5062043;28;20195;-90
2022/03/17 08:12:14;;;;;;;30.90;27.97;;;10.50;99.90;;;;;;5028044;28;20244;-90
2022/03/17 08:14:39;;;;;;;29.70;26.80;;;10.50;99.90;;;;;;5064117;28;20203;-89
2022/03/17 08:17:05;;;;;;;31.37;28.50;;;10.40;99.90;;;;;;5044564;28;20194;-89
2022/03/17 08:19:31;;;;;;;32.80;29.37;;;10.30;99.90;;;;;;5060225;28;20211;-89
2022/03/17 08:21:58;;;;;;;31.23;28.20;;;10.30;99.90;;;;;;5027691;28;20210;-89
2022/03/17 08:24:24;;;;;;;32.67;29.47;;;10.30;99.90;;;;;;5063171;28;20196;-90
2022/03/17 08:26:52;;;;;;;34.97;31.53;;;10.20;99.90;;;;;;5063251;28;20187;-89
2022/03/17 08:29:18;;;;;;;32.47;29.17;;;10.10;99.90;;;;;;5044393;28;20211;-89
2022/03/17 08:31:43;;;;;;;33.30;29.90;;;10.10;99.90;;;;;;5033045;28;20209;-89
2022/03/17 08:34:09;;;;;;;33.03;29.63;;;10.30;99.90;;;;;;5061861;28;20186;-89
2022/03/17 08:36:35;;;;;;;32.57;29.37;;;10.50;99.90;;;;;;5043636;28;20185;-89
2022/03/17 08:39:01;;;;;;;32.90;29.47;;;10.50;99.90;;;;;;5061487;28;20193;-88
2022/03/17 08:41:26;;;;;;;32.03;28.73;;;10.50;99.90;;;;;;5064606;28;20305;-89
2022/03/17 08:43:52;;;;;;;32.63;29.30;;;10.50;99.90;;;;;;5041394;28;20201;-89
2022/03/17 08:49:19;;;;;;;31.60;28.63;;;10.60;99.90;;;;;;5066284;28;20201;-89
2022/03/17 08:51:51;;;;;;;32.07;28.97;;;10.70;99.90;;;;;;5065064;28;20210;-88
2022/03/17 08:54:18;;;;;;;32.47;29.37;;;10.80;99.90;;;;;;5064040;28;20224;-89
2022/03/17 08:56:43;;;;;;;33.43;30.03;;;10.80;98.60;;;;;;5063560;28;20202;-89
2022/03/17 08:59:10;;;;;;;34.53;30.97;;;10.60;99.90;;;;;;5045871;28;20195;-89
2022/03/17 09:01:37;;;;;;;35.83;32.13;;;10.70;99.40;;;;;;5045868;28;20313;-89
2022/03/17 09:04:04;;;;;;;34.97;31.43;;;10.60;99.60;;;;;;5063537;28;20650;-88
2022/03/17 09:06:30;;;;;;;33.93;30.80;;;10.70;98.90;;;;;;5048556;28;20187;-89
2022/03/17 09:08:55;;;;;;;34.20;30.90;;;10.50;98.90;;;;;;5048409;28;20188;-89
2022/03/17 09:11:21;;;;;;;35.37;31.97;;;10.70;99.60;;;;;;5067600;28;20167;-89
2022/03/17 09:13:49;;;;;;;35.03;31.70;;;10.70;99.50;;;;;;5027745;28;20212;-89
2022/03/17 09:16:16;;;;;;;36.20;32.73;;;10.70;99.00;;;;;;5050262;28;20198;-89
2022/03/17 09:18:43;;;;;;;35.47;31.87;;;10.80;96.60;;;;;;5048333;28;20189;-89
2022/03/17 09:21:09;;;;;;;33.10;30.00;;;10.90;97.70;;;;;;5066810;28;20296;-89
2022/03/17 09:23:35;;;;;;;34.67;31.23;;;11.10;96.90;;;;;;5068469;28;20179;-89
2022/03/17 09:26:01;;;;;;;32.80;29.60;;;11.20;95.40;;;;;;5047597;28;20227;-89
2022/03/17 09:28:27;;;;;;;35.30;31.63;;;11.00;96.00;;;;;;5047119;28;20674;-89
2022/03/17 09:30:54;;;;;;;34.30;31.10;;;11.10;95.80;;;;;;5044539;28;20199;-89
2022/03/17 09:33:25;;;;;;;34.07;30.93;;;11.00;96.10;;;;;;5047221;28;20283;-89
2022/03/17 09:35:54;;;;;;;32.67;29.33;;;11.00;96.60;;;;;;5067967;28;20755;-89
2022/03/17 09:38:20;;;;;;;32.10;29.03;;;11.00;97.80;;;;;;5057145;28;20187;-89
2022/03/17 09:40:46;;;;;;;32.50;29.23;;;11.00;97.80;;;;;;5070333;28;20248;-89
2022/03/17 09:43:18;;;;;;;33.87;30.43;;;11.20;96.00;;;;;;5048063;28;20219;-89
2022/03/17 09:45:52;;;;;;;32.77;29.70;;;11.30;95.30;;;;;;5065125;28;20733;-89
2022/03/17 09:48:19;;;;;;;38.40;34.87;;;11.30;95.10;;;;;;5068359;28;20190;-89
2022/03/17 09:50:47;;;;;;;33.20;29.93;;;11.30;96.40;;;;;;5047887;28;20551;-89
2022/03/17 09:53:13;;;;;;;32.93;29.83;;;11.30;97.10;;;;;;5047060;28;20231;-89
2022/03/17 09:55:43;;;;;;;32.43;29.23;;;11.40;95.80;;;;;;5045499;28;20317;-89
2022/03/17 09:58:10;;;;;;;34.07;31.07;;;11.50;95.90;;;;;;5065479;28;20642;-91
2022/03/17 10:00:48;;;;;;;33.53;30.27;;;11.50;96.10;;;;;;5046116;28;20601;-90
2022/03/17 10:03:19;;;;;;;33.23;29.87;;;11.50;96.60;;;;;;5066136;28;20207;-89
2022/03/17 10:05:46;;;;;;;33.20;29.90;;;11.70;95.90;;;;;;5074385;28;20180;-90
2022/03/17 10:08:14;;;;;;;38.13;31.77;;;11.80;94.50;;;;;;5074022;28;20198;-89
2022/03/17 10:10:41;;;;;;;34.13;30.53;;;11.70;95.20;;;;;;5053839;28;20197;-90
2022/03/17 10:13:17;;;;;;;32.37;29.27;;;11.70;94.60;;;;;;5072154;28;20220;-89
2022/03/17 10:15:45;;;;;;;34.10;30.90;;;11.70;94.00;;;;;;5032029;28;20223;-89
2022/03/17 10:18:18;;;;;;;34.17;30.97;;;11.90;92.00;;;;;;5052471;28;20219;-89
2022/03/17 10:20:44;;;;;;;33.60;30.50;;;12.00;90.90;;;;;;5053566;28;20221;-89
2022/03/17 10:23:11;;;;;;;33.90;30.60;;;11.90;91.10;;;;;;5052731;28;20215;-89
2022/03/17 10:25:37;;;;;;;33.37;30.07;;;12.00;90.90;;;;;;5054746;28;20189;-89
2022/03/17 10:28:03;;;;;;;31.47;28.60;;;12.00;90.90;;;;;;5031294;28;20196;-89
2022/03/17 10:30:35;;;;;;;34.77;31.33;;;12.00;91.00;;;;;;5050370;28;20190;-89
2022/03/17 10:33:09;;;;;;;34.20;30.87;;;12.20;90.10;;;;;;5065132;28;20205;-90
2022/03/17 10:35:36;;;;;;;33.20;30.20;;;12.30;89.90;;;;;;5050802;28;20192;-89
2022/03/17 10:38:20;;;;;;;36.63;32.10;;;12.20;91.00;;;;;;5047000;28;20192;-89
2022/03/17 10:41:00;;;;;;;34.03;30.93;;;12.00;92.70;;;;;;5031969;28;20761;-89
2022/03/17 10:43:29;;;;;;;34.47;31.00;;;12.10;92.70;;;;;;5031483;28;20289;-90
2022/03/17 10:46:20;;;;;;;33.30;30.10;;;12.30;92.70;;;;;;5066721;28;20177;-90
2022/03/17 10:48:56;;;;;;;33.43;30.53;;;12.60;89.80;;;;;;5048238;28;20180;-89
2022/03/17 10:51:32;;;;;;;34.20;30.90;;;12.70;89.40;;;;;;5065970;28;20185;-89
2022/03/17 10:54:06;;;;;;;35.17;31.90;;;12.80;88.40;;;;;;5065660;28;20648;-88
2022/03/17 10:56:34;;;;;;;35.23;31.90;;;12.70;89.90;;;;;;5030179;28;20194;-88
2022/03/17 10:59:00;;;;;;;33.27;30.13;;;12.70;90.00;;;;;;5048364;28;20188;-89
2022/03/17 11:01:36;;;;;;;33.23;30.07;;;13.00;86.80;;;;;;5065517;28;20235;-89
2022/03/17 11:04:03;;;;;;;31.93;29.10;;;13.00;86.50;;;;;;5066712;28;20180;-89
2022/03/17 11:06:28;;;;;;;33.13;29.87;;;13.20;87.30;;;;;;5047299;28;20196;-88
2022/03/17 11:08:59;;;;;;;32.47;29.23;;;13.50;84.90;;;;;;5045503;28;20184;-88
2022/03/17 11:11:26;;;;;;;32.13;29.10;;;13.50;84.50;;;;;;5032450;28;20189;-88
2022/03/17 11:13:52;;;;;;;31.30;28.30;;;13.50;84.90;;;;;;5065702;28;20188;-89
2022/03/17 11:16:21;;;;;;;32.67;29.53;;;13.70;84.70;;;;;;5066949;28;20246;-88
2022/03/17 11:18:48;;;;;;;33.93;30.83;;;13.60;84.00;;;;;;5034476;28;20224;-88
2022/03/17 11:21:25;;;;;;;41.10;36.77;;;13.50;83.60;;;;;;5049305;28;20711;-89
2022/03/17 11:24:04;;;;;;;35.00;31.47;;;13.50;84.30;;;;;;5067726;28;20196;-89
2022/03/17 11:26:37;;;;;;;35.43;32.07;;;13.60;84.00;;;;;;5057002;28;20184;-88
2022/03/17 11:29:17;;;;;;;34.50;31.17;;;13.60;85.20;;;;;;5067621;28;20170;-88
2022/03/17 11:31:56;;;;;;;33.83;30.60;;;13.70;84.70;;;;;;5068070;28;20217;-89
2022/03/17 11:34:47;;;;;;;36.27;32.70;;;13.80;84.70;;;;;;5071536;28;20195;-89
2022/03/17 11:37:19;;;;;;;35.77;32.17;;;13.70;85.90;;;;;;5046088;28;20197;-88
2022/03/17 11:40:13;;;;;;;37.00;33.50;;;13.70;87.00;;;;;;5065862;28;20749;-89
2022/03/17 11:42:49;;;;;;;35.13;31.80;;;13.70;86.60;;;;;;5061515;28;20236;-88
2022/03/17 11:45:15;;;;;;;36.80;33.10;;;13.70;86.40;;;;;;5072074;28;20268;-88
2022/03/17 11:47:53;;;;;;;38.57;34.47;;;13.70;82.30;;;;;;5048498;28;20662;-89
2022/03/17 11:50:37;;;;;;;36.83;33.27;;;13.80;81.00;;;;;;5068787;28;20310;-89
2022/03/17 11:53:07;;;;;;;35.63;32.30;;;13.80;81.70;;;;;;5048993;28;20228;-90
2022/03/17 11:55:42;;;;;;;35.27;32.10;;;13.80;80.30;;;;;;5050150;28;20192;-90
2022/03/17 11:58:37;;;;;;;35.70;32.20;;;13.80;83.20;;;;;;5068733;28;20205;-90
2022/03/17 12:01:12;;;;;;;36.20;32.80;;;13.90;80.30;;;;;;5050851;28;20213;-90
2022/03/17 12:03:45;;;;;;;37.23;33.40;;;13.90;80.70;;;;;;5049666;28;20176;-90
2022/03/17 12:06:20;;;;;;;36.93;33.23;;;14.00;79.40;;;;;;5047188;28;20191;-90
2022/03/17 12:09:01;;;;;;;36.67;32.83;;;14.00;78.10;;;;;;5035686;28;20197;-90
2022/03/17 12:11:32;;;;;;;35.77;32.57;;;13.90;77.90;;;;;;5050470;28;20599;-90
2022/03/17 12:14:18;;;;;;;33.00;29.90;;;13.90;76.70;;;;;;5067714;28;20193;-89
2022/03/17 12:16:46;;;;;;;34.07;30.53;;;13.80;75.80;;;;;;5034733;28;20196;-89
2022/03/17 12:19:35;;;;;;;32.10;28.93;;;13.70;75.40;;;;;;5068285;28;20252;-90
2022/03/17 12:22:01;;;;;;;32.83;29.50;;;13.60;75.30;;;;;;5033099;28;20228;-91
2022/03/17 12:24:40;;;;;;;33.27;30.10;;;13.60;74.90;;;;;;5073994;28;20177;-90
2022/03/17 12:27:28;;;;;;;35.50;32.00;;;13.70;73.40;;;;;;5057773;28;20233;-89
2022/03/17 12:30:05;;;;;;;44.53;30.90;;;13.60;74.10;;;;;;5059198;28;20203;-90
2022/03/17 12:32:37;;;;;;;35.57;31.83;;;13.50;75.60;;;;;;5076098;28;20210;-90
2022/03/17 12:35:04;;;;;;;33.93;30.83;;;13.70;73.80;;;;;;5048918;28;20195;-90
2022/03/17 12:37:33;;;;;;;33.40;30.10;;;13.70;73.70;;;;;;5034593;28;20745;-89
2022/03/17 12:40:04;;;;;;;34.47;30.90;;;13.40;73.80;;;;;;5050533;28;20292;-90
2022/03/17 12:42:37;;;;;;;34.70;30.60;;;13.30;74.70;;;;;;5051600;28;20222;-91
2022/03/17 12:45:08;;;;;;;36.90;32.00;;;13.30;75.30;;;;;;5070431;28;20650;-90
2022/03/17 12:47:36;;;;;;;35.17;31.57;;;13.30;74.90;;;;;;5047354;28;20818;-90
2022/03/17 12:50:10;;;;;;;34.60;31.30;;;13.30;74.10;;;;;;5051951;28;20254;-90